Time;durP1;ratioP1;P1;durP2;ratioP2;P2;SDS_P1;SDS_P2;PMS_P1;PMS_P2;Temp;Humidity;BMP_temperature;BMP_pressure;BME280_temperature;BME280_humidity;BME280_pressure;Samples;Min_cycle;Max_cycle;Signal;HPM_P1;HPM_P2
2023/07/01 00:00:08;;;;;;;;;5.00;3.67;;;;;22.23;49.59;100721.28;5038176;28;45525;-73
2023/07/01 00:02:36;;;;;;;;;4.00;4.00;;;;;22.10;50.68;100718.31;5037868;28;46363;-73
2023/07/01 00:05:07;;;;;;;;;4.67;3.33;;;;;21.57;51.18;100644.31;5020308;28;45431;-72
2023/07/01 00:07:34;;;;;;;;;2.67;2.67;;;;;21.37;51.53;100621.19;5037775;28;46171;-73
2023/07/01 00:10:03;;;;;;;;;3.67;3.00;;;;;21.89;52.67;100717.47;5037483;28;45336;-73
2023/07/01 00:12:30;;;;;;;;;2.00;2.00;;;;;21.82;53.35;100716.03;5020074;28;45416;-75
2023/07/01 00:14:55;;;;;;;;;11.00;9.00;;;;;21.80;53.05;100705.41;5038885;28;45360;-72
2023/07/01 00:17:21;;;;;;;;;4.00;4.00;;;;;21.30;53.09;100604.59;5036512;28;46022;-71
2023/07/01 00:19:47;;;;;;;;;2.00;2.00;;;;;21.53;53.30;100648.03;5018883;28;45517;-73
2023/07/01 00:22:13;;;;;;;;;4.00;3.33;;;;;21.45;53.36;100627.09;5037419;28;45418;-71
2023/07/01 00:24:38;;;;;;;;;3.00;3.00;;;;;21.79;54.15;100685.03;5019522;28;45329;-70
2023/07/01 00:27:04;;;;;;;;;7.67;2.00;;;;;21.64;53.69;100643.09;5037178;28;46235;-72
2023/07/01 00:29:30;;;;;;;;;8.00;6.33;;;;;21.75;53.79;100672.78;5019499;28;45385;-71
2023/07/01 00:31:55;;;;;;;;;10.00;9.00;;;;;21.83;53.61;100691.13;5038620;28;45391;-71
2023/07/01 00:34:21;;;;;;;;;9.67;8.00;;;;;21.62;53.86;100676.94;5020990;28;45534;-72
2023/07/01 00:36:46;;;;;;;;;10.67;8.33;;;;;21.67;54.10;100684.75;5038004;28;46765;-75
2023/07/01 00:39:12;;;;;;;;;6.67;6.67;;;;;21.67;53.88;100666.94;5038867;28;45396;-72
2023/07/01 00:41:37;;;;;;;;;10.67;7.33;;;;;21.60;54.17;100681.47;5038697;28;45443;-72
2023/07/01 00:44:03;;;;;;;;;8.67;7.00;;;;;21.24;54.53;100628.00;5038799;28;45531;-72
2023/07/01 00:46:32;;;;;;;;;7.33;7.00;;;;;21.45;54.58;100675.03;5039141;28;45485;-70
2023/07/01 00:49:00;;;;;;;;;7.33;4.67;;;;;21.42;54.63;100664.50;5039826;28;45380;-72
2023/07/01 00:51:27;;;;;;;;;4.00;4.00;;;;;21.42;54.78;100676.97;5038983;28;45356;-72
2023/07/01 00:53:53;;;;;;;;;5.67;4.00;;;;;21.26;55.00;100650.09;5038311;28;45495;-72
2023/07/01 00:56:19;;;;;;;;;3.00;3.00;;;;;21.36;54.95;100659.44;5037289;28;45553;-71
2023/07/01 00:58:45;;;;;;;;;3.67;3.67;;;;;21.37;55.57;100656.66;5021089;28;45450;-73
2023/07/01 01:01:16;;;;;;;;;2.00;2.00;;;;;21.41;56.01;100667.25;5037182;28;45439;-72
2023/07/01 01:03:50;;;;;;;;;5.00;3.67;;;;;21.42;56.08;100653.84;5019976;28;45495;-73
2023/07/01 01:06:22;;;;;;;;;3.00;2.00;;;;;21.32;56.19;100648.03;5020742;28;47049;-72
2023/07/01 01:09:12;;;;;;;;;3.00;3.00;;;;;21.38;56.78;100652.22;5040286;28;45323;-72
2023/07/01 01:11:45;;;;;;;;;2.67;2.67;;;;;21.27;57.42;100642.03;5041942;28;45331;-72
2023/07/01 01:14:13;;;;;;;;;3.00;3.00;;;;;21.22;57.85;100629.88;5041688;28;45312;-72
2023/07/01 01:16:40;;;;;;;;;2.00;2.00;;;;;21.32;57.49;100655.16;5041510;28;46122;-73
2023/07/01 01:19:19;;;;;;;;;4.00;4.00;;;;;21.32;57.38;100644.50;5043752;28;45533;-72
2023/07/01 01:22:23;;;;;;;;;7.00;3.33;;;;;21.33;57.47;100643.56;5023508;28;45267;-73
2023/07/01 01:24:57;;;;;;;;;4.00;2.67;;;;;21.05;58.36;100623.47;5013527;28;45407;-75
2023/07/01 01:27:28;;;;;;;;;2.00;2.00;;;;;20.97;59.04;100614.94;5048752;28;46127;-80
2023/07/01 01:29:54;;;;;;;;;3.00;3.00;;;;;21.02;59.08;100617.41;5050017;28;45389;-77
2023/07/01 01:32:20;;;;;;;;;3.00;2.00;;;;;20.54;59.39;100561.69;5045665;28;45393;-72
2023/07/01 01:34:46;;;;;;;;;2.00;2.00;;;;;21.15;59.72;100638.13;5027725;28;45527;-78
2023/07/01 01:37:18;;;;;;;;;3.00;3.00;;;;;20.96;60.21;100607.88;5041508;28;45579;-69
2023/07/01 01:39:49;;;;;;;;;4.00;4.00;;;;;21.10;60.47;100624.13;5039984;28;45466;-68
2023/07/01 01:42:24;;;;;;;;;3.00;3.00;;;;;20.78;61.35;100598.88;5022068;28;45436;-69
2023/07/01 01:44:53;;;;;;;;;5.00;3.50;;;;;20.82;61.91;100631.56;5024653;28;45417;-70
2023/07/01 01:47:23;;;;;;;;;3.67;3.67;;;;;20.66;62.20;100628.69;5043205;28;46605;-69
2023/07/01 01:49:54;;;;;;;;;3.00;3.00;;;;;20.47;62.90;100623.22;5042609;28;45391;-70
2023/07/01 01:52:24;;;;;;;;;4.67;4.67;;;;;20.30;63.88;100613.25;5028961;28;45392;-70
2023/07/01 01:54:52;;;;;;;;;4.00;4.00;;;;;20.23;64.03;100609.13;5045542;28;45459;-74
2023/07/01 01:57:19;;;;;;;;;4.67;3.00;;;;;20.25;64.32;100615.25;5045635;28;45958;-75
2023/07/01 01:59:45;;;;;;;;;3.33;3.33;;;;;20.18;64.46;100609.31;5046959;28;45344;-72
2023/07/01 02:02:11;;;;;;;;;3.00;3.00;;;;;20.17;64.63;100610.25;5042407;28;45454;-68
2023/07/01 02:04:37;;;;;;;;;3.00;3.00;;;;;19.75;65.01;100560.50;5041065;28;45410;-70
2023/07/01 02:07:04;;;;;;;;;3.00;2.67;;;;;19.66;65.32;100537.75;5041725;28;46364;-69
2023/07/01 02:09:30;;;;;;;;;3.00;3.00;;;;;19.37;65.32;100501.69;5043216;28;45249;-70
2023/07/01 02:11:56;;;;;;;;;6.67;3.00;;;;;20.09;65.35;100605.22;5044582;28;45335;-72
2023/07/01 02:14:23;;;;;;;;;3.00;2.00;;;;;20.19;64.96;100602.19;5043866;28;45493;-69
2023/07/01 02:16:50;;;;;;;;;4.67;3.67;;;;;20.26;65.07;100593.94;5043002;28;46654;-71
2023/07/01 02:19:19;;;;;;;;;3.67;3.33;;;;;20.15;65.70;100601.47;5026732;28;45443;-71
2023/07/01 02:21:45;;;;;;;;;3.00;3.00;;;;;19.95;66.24;100593.38;5041550;28;45376;-68
2023/07/01 02:24:14;;;;;;;;;4.67;3.00;;;;;19.53;66.85;100538.28;5042754;28;45485;-70
2023/07/01 02:26:40;;;;;;;;;4.00;4.00;;;;;19.61;67.46;100573.41;5044607;28;45441;-72
2023/07/01 02:29:05;;;;;;;;;4.00;2.00;;;;;19.77;66.95;100587.00;5044225;28;45411;-70
2023/07/01 02:31:31;;;;;;;;;1.00;1.00;;;;;19.71;66.34;100550.91;5044202;28;45490;-75
2023/07/01 02:34:00;;;;;;;;;3.00;3.00;;;;;19.98;66.50;100580.88;5046160;28;45470;-79
2023/07/01 02:36:26;;;;;;;;;3.00;2.67;;;;;19.94;65.89;100551.81;5042090;28;46224;-72
2023/07/01 02:38:52;;;;;;;;;3.33;1.33;;;;;20.11;66.13;100560.81;5022180;28;45528;-72
2023/07/01 02:41:18;;;;;;;;;4.00;2.33;;;;;20.08;66.56;100568.06;5040998;28;45301;-68
2023/07/01 02:43:43;;;;;;;;;3.00;3.00;;;;;20.06;66.62;100565.47;5041804;28;45556;-69
2023/07/01 02:46:09;;;;;;;;;4.00;3.00;;;;;19.76;66.70;100490.47;5041568;28;46165;-69
2023/07/01 02:48:35;;;;;;;;;5.00;3.67;;;;;19.96;66.49;100539.31;5041243;28;45447;-68
2023/07/01 02:51:01;;;;;;;;;3.00;3.00;;;;;20.09;66.80;100552.03;5039864;28;45273;-69
2023/07/01 02:53:26;;;;;;;;;1.33;1.33;;;;;20.03;66.75;100530.16;5021376;28;45529;-70
2023/07/01 02:55:52;;;;;;;;;1.67;1.67;;;;;20.20;66.23;100545.44;5040906;28;45641;-69
2023/07/01 02:58:22;;;;;;;;;3.67;3.00;;;;;20.37;66.14;100556.22;5042035;28;45449;-69
2023/07/01 03:00:48;;;;;;;;;2.00;2.00;;;;;20.14;66.52;100522.59;5042550;28;45331;-69
2023/07/01 03:03:13;;;;;;;;;3.00;3.00;;;;;20.27;66.80;100552.22;5024099;28;45283;-68
2023/07/01 03:05:39;;;;;;;;;1.33;1.33;;;;;20.19;66.65;100541.88;5040085;28;45511;-72
2023/07/01 03:08:05;;;;;;;;;1.67;1.67;;;;;20.29;66.37;100551.25;5040701;28;45450;-70
2023/07/01 03:10:32;;;;;;;;;2.67;2.67;;;;;20.31;66.99;100556.47;5040314;28;45316;-76
2023/07/01 03:12:59;;;;;;;;;3.00;2.67;;;;;20.26;66.66;100546.06;5039461;28;45342;-73
2023/07/01 03:15:25;;;;;;;;;3.00;3.00;;;;;20.19;66.39;100525.06;5038746;28;46100;-78
2023/07/01 03:17:51;;;;;;;;;2.00;1.33;;;;;20.24;66.62;100545.25;5039925;28;45445;-71
2023/07/01 03:20:23;;;;;;;;;2.33;2.33;;;;;20.26;67.01;100535.41;5021804;28;45554;-73
2023/07/01 03:22:52;;;;;;;;;2.00;2.00;;;;;20.20;67.24;100537.47;5040289;28;45542;-74
2023/07/01 03:25:18;;;;;;;;;2.33;2.33;;;;;20.25;66.78;100531.00;5038849;28;45727;-76
2023/07/01 03:27:44;;;;;;;;;1.00;1.00;;;;;20.32;66.74;100535.16;5038582;28;45617;-73
2023/07/01 03:30:13;;;;;;;;;1.67;1.67;;;;;20.10;66.43;100487.31;5039038;28;45368;-71
2023/07/01 03:32:47;;;;;;;;;2.00;2.00;;;;;20.23;66.97;100537.31;5038591;28;45570;-74
2023/07/01 03:35:13;;;;;;;;;3.33;2.33;;;;;20.21;67.29;100526.75;5040279;28;45383;-79
2023/07/01 03:37:40;;;;;;;;;2.67;2.67;;;;;20.30;66.76;100514.88;5040865;28;45474;-78
2023/07/01 03:40:10;;;;;;;;;4.00;3.00;;;;;20.46;66.52;100528.41;5040818;28;45367;-76
2023/07/01 03:42:40;;;;;;;;;2.00;2.00;;;;;20.39;66.50;100497.66;5023436;28;45332;-71
2023/07/01 03:45:08;;;;;;;;;2.00;2.00;;;;;20.36;67.38;100505.75;5041294;28;45503;-74
2023/07/01 03:47:35;;;;;;;;;5.00;2.33;;;;;20.39;67.25;100513.63;5040018;28;45353;-73
2023/07/01 03:50:01;;;;;;;;;3.00;3.00;;;;;20.46;67.26;100507.13;5020579;28;45321;-74
2023/07/01 03:52:27;;;;;;;;;1.00;1.00;;;;;20.42;67.24;100474.44;5038445;28;45352;-74
2023/07/01 03:54:52;;;;;;;;;2.00;2.00;;;;;20.27;66.72;100437.88;5037906;28;45982;-74
2023/07/01 03:57:18;;;;;;;;;5.00;3.00;;;;;20.73;67.55;100508.59;5037393;28;45572;-75
2023/07/01 03:59:44;;;;;;;;;3.33;3.33;;;;;20.51;68.56;100452.75;5019833;28;45365;-74
2023/07/01 04:02:10;;;;;;;;;3.00;2.00;;;;;20.82;67.17;100502.00;5038192;28;45478;-72
2023/07/01 04:04:36;;;;;;;;;2.00;2.00;;;;;20.72;66.96;100492.72;5037435;28;46061;-72
2023/07/01 04:07:02;;;;;;;;;2.00;2.00;;;;;20.56;67.35;100497.81;5037603;28;45296;-71
2023/07/01 04:09:29;;;;;;;;;3.67;2.00;;;;;20.48;67.61;100502.59;5037401;28;45454;-74
2023/07/01 04:11:55;;;;;;;;;0.00;0.00;;;;;20.40;68.07;100496.72;5038570;28;45551;-73
2023/07/01 04:14:23;;;;;;;;;1.00;1.00;;;;;20.24;68.56;100465.47;5037244;28;45454;-76
2023/07/01 04:16:49;;;;;;;;;1.33;1.33;;;;;20.33;69.06;100465.09;5037753;28;45474;-77
2023/07/01 04:19:15;;;;;;;;;3.33;2.00;;;;;20.00;68.26;100415.97;5038317;28;45454;-76
2023/07/01 04:21:40;;;;;;;;;1.00;1.00;;;;;20.09;68.42;100444.81;5038470;28;45391;-76
2023/07/01 04:24:07;;;;;;;;;2.33;1.00;;;;;20.21;69.13;100478.88;5020194;28;46873;-75
2023/07/01 04:26:35;;;;;;;;;3.00;3.00;;;;;20.37;68.64;100491.53;5038320;28;45679;-76
2023/07/01 04:29:01;;;;;;;;;41.33;33.00;;;;;20.05;69.05;100440.56;5039768;28;45450;-75
2023/07/01 04:31:27;;;;;;;;;77.00;58.75;;;;;19.77;69.12;100391.22;5039427;28;45584;-75
2023/07/01 04:33:54;;;;;;;;;54.00;44.00;;;;;20.18;68.88;100472.84;5037645;28;45519;-74
2023/07/01 04:36:20;;;;;;;;;35.00;28.33;;;;;19.82;69.23;100421.13;5037668;28;45302;-74
2023/07/01 04:38:49;;;;;;;;;19.67;17.67;;;;;20.00;69.05;100439.91;5026480;28;45483;-74
2023/07/01 04:41:15;;;;;;;;;5.67;5.00;;;;;20.25;69.10;100472.50;5038754;28;45498;-74
2023/07/01 04:43:41;;;;;;;;;6.67;5.00;;;;;20.25;69.18;100477.81;5037299;28;46390;-73
2023/07/01 04:46:07;;;;;;;;;3.00;3.00;;;;;19.97;69.36;100440.88;5038131;28;45402;-75
2023/07/01 04:48:33;;;;;;;;;2.67;2.67;;;;;20.08;69.56;100459.91;5019720;28;45507;-75
2023/07/01 04:50:58;;;;;;;;;1.00;1.00;;;;;19.67;70.07;100397.81;5020514;28;45390;-73
2023/07/01 04:53:24;;;;;;;;;3.00;3.00;;;;;19.52;70.21;100370.06;5037910;28;45539;-75
2023/07/01 04:55:50;;;;;;;;;2.00;2.00;;;;;19.62;69.86;100381.19;5037286;28;46774;-74
2023/07/01 04:58:15;;;;;;;;;1.33;1.33;;;;;20.03;70.15;100440.66;5040653;28;45392;-74
2023/07/01 05:00:41;;;;;;;;;1.33;1.00;;;;;20.03;70.16;100437.13;5048473;28;45327;-76
2023/07/01 05:03:09;;;;;;;;;1.00;1.00;;;;;19.88;70.23;100420.91;5043154;28;45439;-75
2023/07/01 05:05:34;;;;;;;;;1.00;1.00;;;;;19.63;70.35;100383.78;5041828;28;45484;-76
2023/07/01 05:08:00;;;;;;;;;1.00;1.00;;;;;19.98;70.84;100457.69;5041026;28;45461;-76
2023/07/01 05:10:26;;;;;;;;;1.00;1.00;;;;;20.04;70.58;100449.47;5025386;28;45458;-75
2023/07/01 05:12:52;;;;;;;;;1.00;1.00;;;;;19.89;70.07;100405.81;5020913;28;46462;-75
2023/07/01 05:15:19;;;;;;;;;1.00;1.00;;;;;19.72;70.03;100376.38;5038983;28;45413;-77
2023/07/01 05:17:45;;;;;;;;;1.33;1.33;;;;;20.21;70.51;100470.03;5039146;28;45406;-76
2023/07/01 05:20:12;;;;;;;;;0.67;0.67;;;;;20.05;69.89;100411.31;5021288;28;45608;-75
2023/07/01 05:22:38;;;;;;;;;2.00;0.67;;;;;19.94;69.44;100371.91;5038213;28;46089;-75
2023/07/01 05:25:04;;;;;;;;;1.67;1.67;;;;;20.04;68.95;100369.72;5037837;28;45485;-77
2023/07/01 05:27:31;;;;;;;;;0.00;0.00;;;;;20.75;68.49;100461.50;5037025;28;45392;-75
2023/07/01 05:29:57;;;;;;;;;1.00;1.00;;;;;20.77;69.11;100457.91;5019744;28;45280;-75
2023/07/01 05:32:23;;;;;;;;;0.33;0.33;;;;;20.18;68.71;100370.00;5032407;28;46195;-75
2023/07/01 05:34:48;;;;;;;;;1.00;1.00;;;;;20.60;68.96;100434.72;5035188;28;45561;-75
2023/07/01 05:37:14;;;;;;;;;1.33;1.33;;;;;20.59;69.11;100423.19;5018754;28;45352;-74
2023/07/01 05:39:40;;;;;;;;;1.00;1.00;;;;;20.31;68.71;100373.84;5036400;28;45246;-76
2023/07/01 05:42:06;;;;;;;;;3.00;1.00;;;;;20.47;69.26;100405.06;5017781;28;45442;-73
2023/07/01 05:44:31;;;;;;;;;1.00;1.00;;;;;20.09;69.45;100375.69;5036365;28;45474;-75
2023/07/01 05:46:58;;;;;;;;;1.00;1.00;;;;;20.72;69.76;100464.28;5018800;28;45614;-75
2023/07/01 05:49:29;;;;;;;;;1.00;1.00;;;;;20.74;69.62;100457.13;5036187;28;45431;-74
2023/07/01 05:51:55;;;;;;;;;1.00;1.00;;;;;20.19;69.11;100363.72;5036127;28;45422;-74
2023/07/01 05:54:20;;;;;;;;;1.00;1.00;;;;;20.75;69.45;100463.28;5037686;28;45308;-76
2023/07/01 05:56:46;;;;;;;;;1.67;1.00;;;;;20.34;69.46;100394.97;5041504;28;45447;-76
2023/07/01 05:59:13;;;;;;;;;1.00;1.00;;;;;20.47;68.82;100397.94;5040260;28;45524;-76
2023/07/01 06:01:39;;;;;;;;;1.00;1.00;;;;;20.71;68.70;100425.28;5024047;28;45503;-75
2023/07/01 06:04:04;;;;;;;;;0.33;0.33;;;;;20.45;69.06;100378.53;5042637;28;45997;-74
2023/07/01 06:06:30;;;;;;;;;1.00;1.00;;;;;20.29;68.77;100345.59;5041880;28;45442;-75
2023/07/01 06:08:56;;;;;;;;;0.67;0.67;;;;;20.78;69.59;100462.28;5040064;28;45446;-74
2023/07/01 06:11:22;;;;;;;;;1.00;1.00;;;;;20.96;69.29;100458.81;5039391;28;45878;-75
2023/07/01 06:13:47;;;;;;;;;0.00;0.00;;;;;21.04;69.04;100471.75;5039631;28;45739;-75
2023/07/01 06:16:14;;;;;;;;;1.00;1.00;;;;;21.10;68.43;100467.03;5039830;28;45467;-75
2023/07/01 06:18:41;;;;;;;;;1.00;1.00;;;;;21.22;68.07;100457.59;5040148;28;45589;-75
2023/07/01 06:21:06;;;;;;;;;2.67;1.00;;;;;20.82;68.35;100392.03;5021726;28;48056;-75
2023/07/01 06:23:38;;;;;;;;;1.00;1.00;;;;;20.95;67.48;100372.75;5039443;28;45439;-75
2023/07/01 06:26:05;;;;;;;;;1.00;1.00;;;;;21.50;67.51;100453.69;5040937;28;45471;-74
2023/07/01 06:28:31;;;;;;;;;2.00;1.00;;;;;21.14;67.12;100378.06;5039839;28;45718;-76
2023/07/01 06:30:57;;;;;;;;;1.33;0.33;;;;;21.48;66.95;100432.41;5022177;28;45519;-75
2023/07/01 06:33:22;;;;;;;;;0.33;0.33;;;;;21.08;67.25;100370.38;5022462;28;45398;-75
2023/07/01 06:35:48;;;;;;;;;0.00;0.00;;;;;21.70;66.80;100448.22;5039686;28;45474;-76
2023/07/01 06:38:14;;;;;;;;;3.00;1.00;;;;;20.77;66.99;100296.41;5038034;28;45630;-77
2023/07/01 06:40:40;;;;;;;;;1.00;1.00;;;;;21.22;66.48;100369.72;5040683;28;45406;-75
2023/07/01 06:43:06;;;;;;;;;1.00;1.00;;;;;21.74;66.95;100435.63;5039975;28;45469;-75
2023/07/01 06:45:32;;;;;;;;;1.00;1.00;;;;;20.87;66.68;100302.16;5026332;28;45491;-76
2023/07/01 06:47:58;;;;;;;;;1.00;1.00;;;;;21.77;66.99;100441.66;5041956;28;45366;-74
2023/07/01 06:50:24;;;;;;;;;1.00;0.33;;;;;21.52;66.95;100419.81;5039984;28;45341;-74
2023/07/01 06:52:50;;;;;;;;;2.00;2.00;;;;;21.70;67.35;100452.69;5039768;28;45371;-76
2023/07/01 06:55:18;;;;;;;;;1.00;1.00;;;;;21.38;67.57;100385.81;5021467;28;45383;-76
2023/07/01 06:57:43;;;;;;;;;0.00;0.00;;;;;21.64;67.38;100400.56;5039250;28;45379;-75
2023/07/01 07:00:12;;;;;;;;;0.33;0.33;;;;;21.35;67.31;100343.34;5039332;28;46199;-75
2023/07/01 07:02:38;;;;;;;;;1.00;1.00;;;;;21.14;66.65;100291.97;5039134;28;45502;-75
2023/07/01 07:05:05;;;;;;;;;0.67;0.67;;;;;22.02;66.58;100443.97;5038838;28;45276;-75
2023/07/01 07:07:31;;;;;;;;;2.00;1.00;;;;;22.06;65.99;100441.16;5020899;28;45429;-76
2023/07/01 07:09:57;;;;;;;;;0.75;0.75;;;;;22.07;66.08;100440.19;5040293;28;45502;-74
2023/07/01 07:12:23;;;;;;;;;0.00;0.00;;;;;22.00;66.68;100445.84;5039767;28;45259;-75
2023/07/01 07:14:48;;;;;;;;;0.00;0.00;;;;;22.01;66.78;100442.22;5039616;28;45800;-76
2023/07/01 07:17:14;;;;;;;;;0.67;0.67;;;;;22.03;66.97;100435.03;5020979;28;45649;-75
2023/07/01 07:19:39;;;;;;;;;2.33;1.00;;;;;21.85;66.80;100411.09;5039693;28;46575;-76
2023/07/01 07:22:06;;;;;;;;;1.00;1.00;;;;;22.09;66.28;100436.53;5040051;28;45495;-75
2023/07/01 07:24:32;;;;;;;;;1.00;1.00;;;;;22.13;66.72;100443.41;5040527;28;45426;-75
2023/07/01 07:27:02;;;;;;;;;0.33;0.33;;;;;21.95;67.46;100429.22;5022969;28;45433;-77
2023/07/01 07:29:30;;;;;;;;;1.00;1.00;;;;;21.95;67.77;100437.22;5041490;28;46062;-75
2023/07/01 07:31:57;;;;;;;;;0.67;0.67;;;;;21.43;67.51;100341.22;5023373;28;45525;-78
2023/07/01 07:34:23;;;;;;;;;1.33;1.33;;;;;22.03;67.13;100434.16;5042233;28;45379;-77
2023/07/01 07:36:50;;;;;;;;;3.67;2.00;;;;;21.82;67.61;100409.44;5040644;28;45455;-77
2023/07/01 07:39:19;;;;;;;;;1.00;1.00;;;;;22.16;66.09;100437.94;5039674;28;46615;-76
2023/07/01 07:41:45;;;;;;;;;1.67;0.33;;;;;22.26;66.03;100441.03;5039364;28;45753;-76
2023/07/01 07:44:11;;;;;;;;;2.00;2.00;;;;;22.35;65.09;100442.34;5039272;28;45424;-77
2023/07/01 07:46:38;;;;;;;;;3.00;1.00;;;;;21.55;65.23;100289.09;5039494;28;45359;-77
2023/07/01 07:49:04;;;;;;;;;2.67;1.00;;;;;22.51;65.40;100437.94;5020691;28;47681;-77
2023/07/01 07:51:31;;;;;;;;;1.00;1.00;;;;;22.51;64.85;100413.06;5039019;28;45498;-76
2023/07/01 07:53:57;;;;;;;;;2.00;2.00;;;;;22.16;64.31;100351.72;5040211;28;45531;-75
2023/07/01 07:56:23;;;;;;;;;1.00;1.00;;;;;22.93;63.74;100433.94;5041647;28;45407;-76
2023/07/01 07:58:49;;;;;;;;;1.00;1.00;;;;;22.76;63.56;100367.25;5040793;28;45170;-78
2023/07/01 08:01:15;;;;;;;;;0.25;0.25;;;;;22.86;62.14;100365.78;5039474;28;45247;-75
2023/07/01 08:03:47;;;;;;;;;0.00;0.00;;;;;23.37;62.07;100424.44;5041878;28;45523;-75
2023/07/01 08:06:12;;;;;;;;;1.00;1.00;;;;;23.19;61.47;100376.44;5040537;28;45364;-77
2023/07/01 08:08:39;;;;;;;;;1.00;1.00;;;;;22.84;60.94;100307.13;5039039;28;45387;-75
2023/07/01 08:11:05;;;;;;;;;0.75;0.75;;;;;23.46;60.35;100375.81;5039945;28;45302;-75
2023/07/01 08:13:30;;;;;;;;;0.00;0.00;;;;;23.64;60.59;100425.56;5049885;28;45513;-75
2023/07/01 08:15:58;;;;;;;;;0.00;0.00;;;;;22.95;60.69;100329.72;5050437;28;45506;-76
2023/07/01 08:18:24;;;;;;;;;1.75;1.00;;;;;23.44;60.43;100391.06;5044814;28;45457;-75
2023/07/01 08:20:50;;;;;;;;;1.25;1.00;;;;;23.29;60.20;100366.94;5043282;28;45367;-74
2023/07/01 08:23:17;;;;;;;;;1.75;1.00;;;;;23.56;59.94;100405.56;5039729;28;45451;-76
2023/07/01 08:25:43;;;;;;;;;3.00;2.00;;;;;23.46;60.19;100395.38;5038187;28;45225;-75
2023/07/01 08:28:09;;;;;;;;;0.75;0.75;;;;;23.57;59.79;100428.69;5019873;28;45785;-76
2023/07/01 08:30:35;;;;;;;;;0.75;0.25;;;;;23.60;59.50;100407.97;5035880;28;45323;-74
2023/07/01 08:33:00;;;;;;;;;1.00;1.00;;;;;23.35;59.02;100339.03;5037849;28;45279;-75
2023/07/01 08:35:26;;;;;;;;;1.00;1.00;;;;;23.50;58.65;100342.63;5039007;28;45454;-75
2023/07/01 08:37:52;;;;;;;;;0.50;0.50;;;;;23.91;58.73;100415.09;5038136;28;46331;-73
2023/07/01 08:40:17;;;;;;;;;1.00;1.00;;;;;23.70;58.72;100349.47;5037056;28;45911;-76
2023/07/01 08:43:01;;;;;;;;;2.00;1.00;;;;;23.80;57.76;100323.06;5038361;28;45420;-75
2023/07/01 08:45:29;;;;;;;;;1.00;1.00;;;;;24.44;57.54;100406.63;5038711;28;45756;-75
2023/07/01 08:47:59;;;;;;;;;1.00;1.00;;;;;24.50;57.26;100401.78;5038714;28;46366;-76
2023/07/01 08:50:37;;;;;;;;;0.25;0.25;;;;;24.44;57.47;100414.66;5020036;28;45352;-77
2023/07/01 08:53:06;;;;;;;;;1.00;1.00;;;;;23.82;57.82;100338.06;5037715;28;45474;-79
2023/07/01 08:55:33;;;;;;;;;1.00;0.50;;;;;24.07;58.28;100415.06;5038302;28;45284;-74
2023/07/01 08:57:59;;;;;;;;;1.00;1.00;;;;;23.52;58.63;100343.41;5020343;28;46697;-74
2023/07/01 09:00:25;;;;;;;;;0.00;0.00;;;;;23.95;59.64;100420.28;5020204;28;45419;-76
2023/07/01 09:02:52;;;;;;;;;2.25;1.00;;;;;23.64;59.65;100374.75;5039178;28;45474;-75
2023/07/01 09:05:18;;;;;;;;;2.00;1.50;;;;;24.09;59.60;100426.53;5039187;28;45395;-76
2023/07/01 09:07:44;;;;;;;;;2.00;2.00;;;;;24.22;58.54;100391.00;5021685;28;45976;-75
2023/07/01 09:10:11;;;;;;;;;3.00;3.00;;;;;24.46;58.57;100402.03;5041648;28;45483;-77
2023/07/01 09:12:37;;;;;;;;;1.75;1.00;;;;;24.19;58.07;100338.53;5040181;28;45373;-77
2023/07/01 09:15:05;;;;;;;;;1.00;1.00;;;;;24.70;57.68;100418.44;5019997;28;45309;-78
2023/07/01 09:17:35;;;;;;;;;5.75;3.00;;;;;24.38;56.93;100340.94;5039376;28;45517;-78
2023/07/01 09:20:05;;;;;;;;;2.00;2.00;;;;;24.71;57.40;100398.75;5020378;28;45302;-78
2023/07/01 09:22:31;;;;;;;;;0.00;0.00;;;;;24.32;56.49;100349.34;5037556;28;45319;-75
2023/07/01 09:24:58;;;;;;;;;2.00;1.00;;;;;24.83;56.22;100413.19;5038226;28;45584;-76
2023/07/01 09:27:24;;;;;;;;;0.00;0.00;;;;;24.69;55.40;100395.31;5030013;28;45472;-75
2023/07/01 09:29:52;;;;;;;;;0.00;0.00;;;;;24.76;55.66;100400.16;5037449;28;45418;-75
2023/07/01 09:32:29;;;;;;;;;0.25;0.25;;;;;24.70;55.56;100387.19;5019824;28;45250;-77
2023/07/01 09:34:57;;;;;;;;;1.00;1.00;;;;;24.52;54.74;100348.16;5037632;28;45420;-76
2023/07/01 09:37:26;;;;;;;;;1.50;1.00;;;;;24.75;54.85;100363.66;5037066;28;45420;-77
2023/07/01 09:39:52;;;;;;;;;1.00;1.00;;;;;24.88;54.45;100360.19;5020165;28;45960;-77
2023/07/01 09:42:18;;;;;;;;;1.25;1.00;;;;;25.12;54.12;100412.19;5019486;28;46256;-76
2023/07/01 09:45:19;;;;;;;;;2.00;0.75;;;;;25.04;53.70;100417.19;5038351;28;45542;-74
2023/07/01 09:47:51;;;;;;;;;1.00;1.00;;;;;25.01;53.79;100414.72;4938367;28;45680;-77
2023/07/01 09:50:24;;;;;;;;;2.00;2.00;;;;;24.85;53.49;100392.53;5023730;28;45474;-78
2023/07/01 09:52:52;;;;;;;;;1.00;1.00;;;;;24.71;53.40;100371.97;5043417;28;45208;-77
2023/07/01 09:55:18;;;;;;;;;1.00;1.00;;;;;24.24;53.31;100282.94;5043640;28;45359;-77
2023/07/01 09:57:44;;;;;;;;;3.00;2.00;;;;;25.00;52.70;100404.09;5039914;28;46189;-74
2023/07/01 10:00:19;;;;;;;;;1.75;1.75;;;;;24.88;53.04;100376.25;5039690;28;45363;-74
2023/07/01 10:02:47;;;;;;;;;0.50;0.50;;;;;25.05;52.65;100393.94;5041320;28;45415;-76
2023/07/01 10:05:14;;;;;;;;;2.00;1.00;;;;;25.05;52.45;100380.53;5041375;28;45439;-75
2023/07/01 10:07:44;;;;;;;;;1.00;1.00;;;;;24.86;52.20;100330.81;5039775;28;45614;-74
2023/07/01 10:10:21;;;;;;;;;0.50;0.50;;;;;25.05;51.52;100338.53;5039317;28;45399;-74
2023/07/01 10:12:47;;;;;;;;;0.50;0.50;;;;;25.16;50.74;100368.16;5040381;28;45431;-74
2023/07/01 10:15:16;;;;;;;;;1.00;1.00;;;;;25.27;50.70;100375.56;5040920;28;45285;-74
2023/07/01 10:17:47;;;;;;;;;0.00;0.00;;;;;25.57;50.90;100418.25;5040324;28;46469;-73
2023/07/01 10:20:26;;;;;;;;;0.50;0.50;;;;;25.76;49.91;100412.53;5039594;28;45506;-74
2023/07/01 10:23:11;;;;;;;;;1.00;1.00;;;;;25.64;49.79;100374.94;5019004;28;45577;-73
2023/07/01 10:25:38;;;;;;;;;0.00;0.00;;;;;25.71;49.93;100376.25;5021379;28;45453;-74
2023/07/01 10:28:12;;;;;;;;;2.00;1.00;;;;;25.39;49.94;100329.19;5021385;28;46699;-74
2023/07/01 10:30:44;;;;;;;;;2.25;1.75;;;;;26.07;49.22;100418.53;5039707;28;45568;-73
2023/07/01 10:33:33;;;;;;;;;2.25;1.50;;;;;26.19;48.51;100412.34;5022443;28;45723;-75
2023/07/01 10:36:06;;;;;;;;;4.50;3.00;;;;;26.19;48.19;100416.84;5040545;28;45429;-74
2023/07/01 10:38:34;;;;;;;;;2.75;2.00;;;;;26.22;47.97;100404.09;5039142;28;45582;-74
2023/07/01 10:41:00;;;;;;;;;3.00;2.00;;;;;26.17;46.92;100374.03;5039201;28;45343;-74
2023/07/01 10:43:29;;;;;;;;;2.00;2.00;;;;;26.39;46.19;100399.38;5042952;28;45300;-74
2023/07/01 10:46:12;;;;;;;;;3.75;3.00;;;;;25.92;46.04;100309.59;5041073;28;45374;-74
2023/07/01 10:48:43;;;;;;;;;5.25;3.00;;;;;26.44;45.38;100394.56;5020247;28;46696;-74
2023/07/01 10:51:10;;;;;;;;;4.00;2.75;;;;;26.20;45.67;100368.44;5030262;28;45754;-74
2023/07/01 10:53:58;;;;;;;;;2.00;2.00;;;;;26.37;45.89;100401.31;5038821;28;45195;-74
2023/07/01 10:56:25;;;;;;;;;3.25;3.00;;;;;26.25;44.91;100367.28;5039424;28;45353;-74
2023/07/01 10:59:22;;;;;;;;;4.00;3.00;;;;;26.39;45.24;100392.19;5040031;28;45672;-75
2023/07/01 11:01:49;;;;;;;;;4.75;3.00;;;;;26.08;45.41;100342.47;5039485;28;45462;-73
2023/07/01 11:04:16;;;;;;;;;4.75;3.75;;;;;25.63;45.28;100301.69;5038868;28;45478;-74
2023/07/01 11:06:52;;;;;;;;;5.00;3.00;;;;;25.53;45.86;100333.63;5040032;28;45431;-74
2023/07/01 11:09:29;;;;;;;;;4.75;3.00;;;;;25.72;45.33;100372.59;5039912;28;45453;-74
2023/07/01 11:11:56;;;;;;;;;4.25;2.50;;;;;25.81;45.15;100375.53;5037732;28;45590;-74
2023/07/01 11:14:34;;;;;;;;;5.00;3.75;;;;;26.06;44.95;100406.09;5036985;28;45254;-74
2023/07/01 11:17:18;;;;;;;;;2.75;2.75;;;;;26.08;44.10;100404.19;5038714;28;45375;-74
2023/07/01 11:19:44;;;;;;;;;4.50;4.50;;;;;26.08;44.26;100403.31;5039982;28;46578;-75
2023/07/01 11:22:14;;;;;;;;;4.50;4.25;;;;;26.06;44.37;100403.44;5021183;28;45399;-74
2023/07/01 11:24:40;;;;;;;;;6.50;4.50;;;;;26.08;44.62;100393.44;5041682;28;45425;-75
2023/07/01 11:27:08;;;;;;;;;4.25;4.25;;;;;26.06;44.66;100379.28;5046046;28;45344;-72